KIYA

Abbeville Chris Crusta Memorial Airport

Abbeville, Louisiana, USA
METAR KIYA 271135Z AUTO 00000KT 3SM BR CLR 21/21 A2983 RMK AO2 T02050205
Observed Flight Rules
May-27 @ 11:35 UTC (28 minutes ago) Marginal Visual Flight Rules
Visibility Clouds Conditions
3 miles
  • Clear skies
  • Mist
Temperatures Readings
Current 21°C / 70°F
Dewpoint 21°C / 70°F
Humidity 100%
Altimeter 29.83" Hg
Pressure 1010 hPa
Elevation 5
METAR KIYA 271135Z AUTO 00000KT 3SM BR CLR 21/21 A2983 RMK AO2 T02050205
Observed Flight Rules
May-27 @ 11:35 UTC
(28 minutes ago)
MVFR
Clouds
  • Clear skies
Conditions
  • Mist
Temperature Dewpoint
21°C / 70°F 21°C / 70°F
Humidity Altimeter Pressure
100% 29.83" Hg 1010 hPa